CCA1549 ZBAA-ZSSS
Flight info
| Callsign | CCA1549 |
|---|---|
| Flight time | N/A |
| Altitude | 35100 |
| Route | ELKUR2G ELKUR W40 YQG W142 DALIM A593 DPX A470 DALNU W166 ZJ W167 SASAN R343 PK |
| Aircraft | A320/M-SDE3FGHIRWY/LB1 |
Departure
| Time | 2026-05-06 11:59 |
|---|---|
| Airport | Beijing Capital International Airport (ZBAA) |
Arrival
| Time | N/A |
|---|---|
| Airport | Shanghai Hongqiao International Airport (ZSSS) |
| Time | Latitude | Longitude | Altitude | Speed | Heading |
|---|---|---|---|---|---|
| 2026-05-06 11:33 | 40.08518 | 116.58330 | 118 ft | 0 kts | 353° |
| 2026-05-06 11:47 | 40.08512 | 116.58330 | 118 ft | 2 kts | 353° |
| 2026-05-06 11:47 | 40.08497 | 116.58331 | 118 ft | 2 kts | 9° |
| 2026-05-06 11:48 | 40.08483 | 116.58326 | 118 ft | 2 kts | 22° |
| 2026-05-06 11:48 | 40.08469 | 116.58317 | 118 ft | 2 kts | 37° |
| 2026-05-06 11:48 | 40.08459 | 116.58303 | 118 ft | 2 kts | 51° |
| 2026-05-06 11:48 | 40.08451 | 116.58287 | 118 ft | 2 kts | 65° |
| 2026-05-06 11:49 | 40.08446 | 116.58269 | 118 ft | 1 kts | 79° |
| 2026-05-06 11:49 | 40.08445 | 116.58260 | 118 ft | 1 kts | 85° |
| 2026-05-06 11:49 | 40.08445 | 116.58257 | 118 ft | 0 kts | 83° |
| 2026-05-06 11:49 | 40.08445 | 116.58258 | 118 ft | 0 kts | 83° |
| 2026-05-06 11:51 | 40.08445 | 116.58265 | 118 ft | 1 kts | 83° |
| 2026-05-06 11:51 | 40.08447 | 116.58286 | 118 ft | 3 kts | 83° |
| 2026-05-06 11:52 | 40.08451 | 116.58333 | 118 ft | 6 kts | 83° |
| 2026-05-06 11:52 | 40.08458 | 116.58408 | 118 ft | 9 kts | 83° |
| 2026-05-06 11:52 | 40.08468 | 116.58511 | 118 ft | 12 kts | 82° |
| 2026-05-06 11:52 | 40.08480 | 116.58638 | 118 ft | 15 kts | 83° |
| 2026-05-06 11:53 | 40.08493 | 116.58782 | 118 ft | 16 kts | 83° |
| 2026-05-06 11:53 | 40.08505 | 116.58920 | 118 ft | 15 kts | 83° |
| 2026-05-06 11:53 | 40.08520 | 116.59058 | 118 ft | 16 kts | 81° |
| 2026-05-06 11:53 | 40.08541 | 116.59190 | 118 ft | 12 kts | 71° |
| 2026-05-06 11:54 | 40.08596 | 116.59243 | 118 ft | 10 kts | 356° |
| 2026-05-06 11:54 | 40.08680 | 116.59232 | 118 ft | 13 kts | 353° |
| 2026-05-06 11:54 | 40.08782 | 116.59216 | 118 ft | 15 kts | 352° |
| 2026-05-06 11:54 | 40.08892 | 116.59199 | 118 ft | 12 kts | 358° |
| 2026-05-06 11:55 | 40.08965 | 116.59243 | 118 ft | 13 kts | 51° |
| 2026-05-06 11:55 | 40.08978 | 116.59360 | 118 ft | 14 kts | 116° |
| 2026-05-06 11:55 | 40.08917 | 116.59464 | 118 ft | 14 kts | 131° |
| 2026-05-06 11:55 | 40.08850 | 116.59499 | 118 ft | 0 kts | 172° |
| 2026-05-06 11:58 | 40.08847 | 116.59499 | 118 ft | 1 kts | 172° |
| 2026-05-06 11:58 | 40.08709 | 116.59521 | 118 ft | 54 kts | 173° |
| 2026-05-06 11:59 | 40.08086 | 116.59618 | 118 ft | 124 kts | 173° |
| 2026-05-06 11:59 | 40.07036 | 116.59783 | 180 ft | 172 kts | 172° |
| 2026-05-06 11:59 | 40.05829 | 116.59962 | 771 ft | 176 kts | 173° |
| 2026-05-06 11:59 | 40.04598 | 116.60142 | 1457 ft | 181 kts | 173° |
| 2026-05-06 12:00 | 40.03363 | 116.60336 | 2087 ft | 186 kts | 173° |
| 2026-05-06 12:00 | 40.02025 | 116.60551 | 2529 ft | 202 kts | 173° |
| 2026-05-06 12:00 | 40.00552 | 116.60785 | 2970 ft | 220 kts | 174° |
| 2026-05-06 12:00 | 39.98982 | 116.61033 | 3410 ft | 237 kts | 174° |
| 2026-05-06 12:01 | 39.97248 | 116.61300 | 3786 ft | 262 kts | 174° |
| 2026-05-06 12:01 | 39.95399 | 116.61588 | 4292 ft | 280 kts | 174° |
| 2026-05-06 12:01 | 39.93392 | 116.61902 | 4909 ft | 295 kts | 174° |
| 2026-05-06 12:01 | 39.91370 | 116.62217 | 5720 ft | 300 kts | 174° |
| 2026-05-06 12:02 | 39.89278 | 116.62546 | 6563 ft | 305 kts | 174° |
| 2026-05-06 12:02 | 39.87155 | 116.62878 | 7418 ft | 309 kts | 174° |
| 2026-05-06 12:02 | 39.85052 | 116.63210 | 8344 ft | 309 kts | 175° |
| 2026-05-06 12:02 | 39.82917 | 116.63544 | 9292 ft | 308 kts | 175° |
| 2026-05-06 12:03 | 39.80818 | 116.63867 | 10191 ft | 308 kts | 176° |
| 2026-05-06 12:03 | 39.78679 | 116.64196 | 10837 ft | 317 kts | 176° |
| 2026-05-06 12:03 | 39.76412 | 116.64536 | 11236 ft | 335 kts | 176° |
| 2026-05-06 12:03 | 39.74088 | 116.64887 | 11772 ft | 345 kts | 176° |
| 2026-05-06 12:04 | 39.71685 | 116.65259 | 12585 ft | 346 kts | 178° |
| 2026-05-06 12:04 | 39.69283 | 116.65643 | 13414 ft | 347 kts | 178° |
| 2026-05-06 12:04 | 39.66900 | 116.66022 | 14208 ft | 348 kts | 178° |
| 2026-05-06 12:04 | 39.64495 | 116.66538 | 14941 ft | 353 kts | 175° |
| 2026-05-06 12:05 | 39.62086 | 116.67162 | 15655 ft | 355 kts | 175° |
| 2026-05-06 12:05 | 39.59674 | 116.67788 | 16363 ft | 357 kts | 175° |
| 2026-05-06 12:05 | 39.57238 | 116.68422 | 17028 ft | 360 kts | 175° |
| 2026-05-06 12:05 | 39.54800 | 116.69289 | 17673 ft | 369 kts | 168° |
| 2026-05-06 12:06 | 39.52399 | 116.70579 | 18320 ft | 377 kts | 161° |
| 2026-05-06 12:06 | 39.50075 | 116.72173 | 18919 ft | 382 kts | 158° |
| 2026-05-06 12:06 | 39.47758 | 116.73838 | 19484 ft | 386 kts | 158° |
| 2026-05-06 12:06 | 39.46957 | 116.74416 | 19667 ft | 388 kts | 158° |
| 2026-05-06 12:07 | 39.44614 | 116.76104 | 20187 ft | 392 kts | 159° |